sensor_id;sensor_type;location;lat;lon;timestamp;P1;P2;P0
83024;PMS5003;72958;53.326;-1.496;2024-02-14T00:02:14;12;10;
83024;PMS5003;72958;53.326;-1.496;2024-02-14T00:04:41;2;2;
83024;PMS5003;72958;53.326;-1.496;2024-02-14T00:07:06;8;8;
83024;PMS5003;72958;53.326;-1.496;2024-02-14T00:09:44;8;8;
83024;PMS5003;72958;53.326;-1.496;2024-02-14T00:12:19;10;10;
83024;PMS5003;72958;53.326;-1.496;2024-02-14T00:14:46;17;13;
83024;PMS5003;72958;53.326;-1.496;2024-02-14T00:17:20;11;10;
83024;PMS5003;72958;53.326;-1.496;2024-02-14T00:19:51;21;3;
83024;PMS5003;72958;53.326;-1.496;2024-02-14T00:22:23;11;11;
83024;PMS5003;72958;53.326;-1.496;2024-02-14T00:24:47;12;9;
83024;PMS5003;72958;53.326;-1.496;2024-02-14T00:27:47;14;14;
83024;PMS5003;72958;53.326;-1.496;2024-02-14T00:30:15;11;11;
83024;PMS5003;72958;53.326;-1.496;2024-02-14T00:32:38;11;11;
83024;PMS5003;72958;53.326;-1.496;2024-02-14T00:35:04;5;5;
83024;PMS5003;72958;53.326;-1.496;2024-02-14T00:37:34;13;11;
83024;PMS5003;72958;53.326;-1.496;2024-02-14T00:39:59;11;10;
83024;PMS5003;72958;53.326;-1.496;2024-02-14T00:42:32;11;9;
83024;PMS5003;72958;53.326;-1.496;2024-02-14T00:45:00;7;7;
83024;PMS5003;72958;53.326;-1.496;2024-02-14T00:47:50;11;11;
83024;PMS5003;72958;53.326;-1.496;2024-02-14T00:50:18;11;6;
83024;PMS5003;72958;53.326;-1.496;2024-02-14T00:52:46;20;19;
83024;PMS5003;72958;53.326;-1.496;2024-02-14T00:55:14;12;12;
83024;PMS5003;72958;53.326;-1.496;2024-02-14T00:57:40;15;13;
83024;PMS5003;72958;53.326;-1.496;2024-02-14T01:00:06;2;2;
83024;PMS5003;72958;53.326;-1.496;2024-02-14T01:02:31;19;15;
83024;PMS5003;72958;53.326;-1.496;2024-02-14T01:04:59;7;7;
83024;PMS5003;72958;53.326;-1.496;2024-02-14T01:08:01;12;12;
83024;PMS5003;72958;53.326;-1.496;2024-02-14T01:10:28;10;9;
83024;PMS5003;72958;53.326;-1.496;2024-02-14T01:12:58;8;8;
83024;PMS5003;72958;53.326;-1.496;2024-02-14T01:15:25;9;9;
83024;PMS5003;72958;53.326;-1.496;2024-02-14T01:17:58;12;10;
83024;PMS5003;72958;53.326;-1.496;2024-02-14T01:20:41;14;6;
83024;PMS5003;72958;53.326;-1.496;2024-02-14T01:23:07;4;4;
83024;PMS5003;72958;53.326;-1.496;2024-02-14T01:25:35;5;5;
83024;PMS5003;72958;53.326;-1.496;2024-02-14T01:28:01;9;9;
83024;PMS5003;72958;53.326;-1.496;2024-02-14T01:30:26;5;5;
83024;PMS5003;72958;53.326;-1.496;2024-02-14T01:32:54;15;9;
83024;PMS5003;72958;53.326;-1.496;2024-02-14T01:35:21;8;8;
83024;PMS5003;72958;53.326;-1.496;2024-02-14T01:37:56;5;5;
83024;PMS5003;72958;53.326;-1.496;2024-02-14T01:40:23;5;5;
83024;PMS5003;72958;53.326;-1.496;2024-02-14T01:42:57;4;4;
83024;PMS5003;72958;53.326;-1.496;2024-02-14T01:45:48;9;1;
83024;PMS5003;72958;53.326;-1.496;2024-02-14T01:48:15;6;6;
83024;PMS5003;72958;53.326;-1.496;2024-02-14T01:50:48;13;12;
83024;PMS5003;72958;53.326;-1.496;2024-02-14T01:53:28;8;6;
83024;PMS5003;72958;53.326;-1.496;2024-02-14T01:55:59;3;3;
83024;PMS5003;72958;53.326;-1.496;2024-02-14T01:58:24;5;5;
83024;PMS5003;72958;53.326;-1.496;2024-02-14T02:00:58;4;4;
83024;PMS5003;72958;53.326;-1.496;2024-02-14T02:03:27;2;2;
83024;PMS5003;72958;53.326;-1.496;2024-02-14T02:06:11;6;4;
83024;PMS5003;72958;53.326;-1.496;2024-02-14T02:08:37;3;3;
83024;PMS5003;72958;53.326;-1.496;2024-02-14T02:11:11;6;6;
83024;PMS5003;72958;53.326;-1.496;2024-02-14T02:13:43;3;3;
83024;PMS5003;72958;53.326;-1.496;2024-02-14T02:16:13;1;1;
83024;PMS5003;72958;53.326;-1.496;2024-02-14T02:18:38;6;5;
83024;PMS5003;72958;53.326;-1.496;2024-02-14T02:21:09;6;5;
83024;PMS5003;72958;53.326;-1.496;2024-02-14T02:23:57;3;3;
83024;PMS5003;72958;53.326;-1.496;2024-02-14T02:26:27;2;2;
83024;PMS5003;72958;53.326;-1.496;2024-02-14T02:29:08;8;5;
83024;PMS5003;72958;53.326;-1.496;2024-02-14T02:31:46;3;3;
83024;PMS5003;72958;53.326;-1.496;2024-02-14T02:34:25;8;4;
83024;PMS5003;72958;53.326;-1.496;2024-02-14T02:36:57;1;1;
83024;PMS5003;72958;53.326;-1.496;2024-02-14T02:39:33;3;3;
83024;PMS5003;72958;53.326;-1.496;2024-02-14T02:42:01;5;5;
83024;PMS5003;72958;53.326;-1.496;2024-02-14T02:44:26;4;4;
83024;PMS5003;72958;53.326;-1.496;2024-02-14T02:46:54;3;3;
83024;PMS5003;72958;53.326;-1.496;2024-02-14T02:49:20;6;6;
83024;PMS5003;72958;53.326;-1.496;2024-02-14T02:51:46;2;2;
83024;PMS5003;72958;53.326;-1.496;2024-02-14T02:54:13;4;4;
83024;PMS5003;72958;53.326;-1.496;2024-02-14T02:56:39;3;3;
83024;PMS5003;72958;53.326;-1.496;2024-02-14T02:59:11;5;4;
83024;PMS5003;72958;53.326;-1.496;2024-02-14T03:01:37;2;2;
83024;PMS5003;72958;53.326;-1.496;2024-02-14T03:04:12;2;2;
83024;PMS5003;72958;53.326;-1.496;2024-02-14T03:06:38;3;3;
83024;PMS5003;72958;53.326;-1.496;2024-02-14T03:09:18;3;3;
83024;PMS5003;72958;53.326;-1.496;2024-02-14T03:11:46;2;2;
83024;PMS5003;72958;53.326;-1.496;2024-02-14T03:14:14;1;1;
83024;PMS5003;72958;53.326;-1.496;2024-02-14T03:16:42;2;2;
83024;PMS5003;72958;53.326;-1.496;2024-02-14T03:19:09;2;2;
83024;PMS5003;72958;53.326;-1.496;2024-02-14T03:21:36;2;2;
83024;PMS5003;72958;53.326;-1.496;2024-02-14T03:24:06;1;1;
83024;PMS5003;72958;53.326;-1.496;2024-02-14T03:26:44;0;0;
83024;PMS5003;72958;53.326;-1.496;2024-02-14T03:29:43;2;2;
83024;PMS5003;72958;53.326;-1.496;2024-02-14T03:32:19;0;0;
83024;PMS5003;72958;53.326;-1.496;2024-02-14T03:34:49;1;1;
83024;PMS5003;72958;53.326;-1.496;2024-02-14T03:37:21;0;0;
83024;PMS5003;72958;53.326;-1.496;2024-02-14T03:39:57;0;0;
83024;PMS5003;72958;53.326;-1.496;2024-02-14T03:42:23;4;2;
83024;PMS5003;72958;53.326;-1.496;2024-02-14T03:45:19;2;2;
83024;PMS5003;72958;53.326;-1.496;2024-02-14T03:47:45;0;0;
83024;PMS5003;72958;53.326;-1.496;2024-02-14T03:50:18;0;0;
83024;PMS5003;72958;53.326;-1.496;2024-02-14T03:52:45;1;1;
83024;PMS5003;72958;53.326;-1.496;2024-02-14T03:55:14;2;2;
83024;PMS5003;72958;53.326;-1.496;2024-02-14T03:57:40;1;1;
83024;PMS5003;72958;53.326;-1.496;2024-02-14T04:00:07;1;1;
83024;PMS5003;72958;53.326;-1.496;2024-02-14T04:02:34;3;2;
83024;PMS5003;72958;53.326;-1.496;2024-02-14T04:05:04;1;1;
83024;PMS5003;72958;53.326;-1.496;2024-02-14T04:07:36;0;0;
83024;PMS5003;72958;53.326;-1.496;2024-02-14T04:10:17;3;3;
83024;PMS5003;72958;53.326;-1.496;2024-02-14T04:12:45;1;1;
83024;PMS5003;72958;53.326;-1.496;2024-02-14T04:15:19;0;0;
83024;PMS5003;72958;53.326;-1.496;2024-02-14T04:18:01;0;0;
83024;PMS5003;72958;53.326;-1.496;2024-02-14T04:20:27;1;1;
83024;PMS5003;72958;53.326;-1.496;2024-02-14T04:22:56;0;0;
83024;PMS5003;72958;53.326;-1.496;2024-02-14T04:25:22;0;0;
83024;PMS5003;72958;53.326;-1.496;2024-02-14T04:28:05;0;0;
83024;PMS5003;72958;53.326;-1.496;2024-02-14T04:30:32;0;0;
83024;PMS5003;72958;53.326;-1.496;2024-02-14T04:33:00;0;0;
83024;PMS5003;72958;53.326;-1.496;2024-02-14T04:35:28;0;0;
83024;PMS5003;72958;53.326;-1.496;2024-02-14T04:38:00;0;0;
83024;PMS5003;72958;53.326;-1.496;2024-02-14T04:40:27;0;0;
83024;PMS5003;72958;53.326;-1.496;2024-02-14T04:42:59;0;0;
83024;PMS5003;72958;53.326;-1.496;2024-02-14T04:45:32;0;0;
83024;PMS5003;72958;53.326;-1.496;2024-02-14T04:48:10;0;0;
83024;PMS5003;72958;53.326;-1.496;2024-02-14T04:50:44;0;0;
83024;PMS5003;72958;53.326;-1.496;2024-02-14T04:53:09;0;0;
83024;PMS5003;72958;53.326;-1.496;2024-02-14T04:55:36;0;0;
83024;PMS5003;72958;53.326;-1.496;2024-02-14T04:58:15;0;0;
83024;PMS5003;72958;53.326;-1.496;2024-02-14T05:00:46;0;0;
83024;PMS5003;72958;53.326;-1.496;2024-02-14T05:03:14;0;0;
83024;PMS5003;72958;53.326;-1.496;2024-02-14T05:05:38;1;0;
83024;PMS5003;72958;53.326;-1.496;2024-02-14T05:08:03;0;0;
83024;PMS5003;72958;53.326;-1.496;2024-02-14T05:10:30;0;0;
83024;PMS5003;72958;53.326;-1.496;2024-02-14T05:12:55;0;0;
83024;PMS5003;72958;53.326;-1.496;2024-02-14T05:15:21;0;0;
83024;PMS5003;72958;53.326;-1.496;2024-02-14T05:17:46;0;0;
83024;PMS5003;72958;53.326;-1.496;2024-02-14T05:20:12;0;0;
83024;PMS5003;72958;53.326;-1.496;2024-02-14T05:22:38;0;0;
83024;PMS5003;72958;53.326;-1.496;2024-02-14T05:25:10;0;0;
83024;PMS5003;72958;53.326;-1.496;2024-02-14T05:27:36;1;1;
83024;PMS5003;72958;53.326;-1.496;2024-02-14T05:30:04;2;2;
83024;PMS5003;72958;53.326;-1.496;2024-02-14T05:32:29;1;1;
83024;PMS5003;72958;53.326;-1.496;2024-02-14T05:35:06;1;1;
83024;PMS5003;72958;53.326;-1.496;2024-02-14T05:37:50;2;2;
83024;PMS5003;72958;53.326;-1.496;2024-02-14T05:40:25;0;0;
83024;PMS5003;72958;53.326;-1.496;2024-02-14T05:42:55;2;2;
83024;PMS5003;72958;53.326;-1.496;2024-02-14T05:45:20;2;2;
83024;PMS5003;72958;53.326;-1.496;2024-02-14T05:47:46;2;2;
83024;PMS5003;72958;53.326;-1.496;2024-02-14T05:50:13;1;1;
83024;PMS5003;72958;53.326;-1.496;2024-02-14T05:52:48;1;1;
83024;PMS5003;72958;53.326;-1.496;2024-02-14T05:55:22;2;2;
83024;PMS5003;72958;53.326;-1.496;2024-02-14T05:57:47;3;3;
83024;PMS5003;72958;53.326;-1.496;2024-02-14T06:00:24;1;1;
83024;PMS5003;72958;53.326;-1.496;2024-02-14T06:02:51;1;1;
83024;PMS5003;72958;53.326;-1.496;2024-02-14T06:05:28;1;1;
83024;PMS5003;72958;53.326;-1.496;2024-02-14T06:08:06;1;1;
83024;PMS5003;72958;53.326;-1.496;2024-02-14T06:10:35;3;2;
83024;PMS5003;72958;53.326;-1.496;2024-02-14T06:13:06;1;1;
83024;PMS5003;72958;53.326;-1.496;2024-02-14T06:15:43;0;0;
83024;PMS5003;72958;53.326;-1.496;2024-02-14T06:18:17;0;0;
83024;PMS5003;72958;53.326;-1.496;2024-02-14T06:20:56;1;1;
83024;PMS5003;72958;53.326;-1.496;2024-02-14T06:23:22;1;1;
83024;PMS5003;72958;53.326;-1.496;2024-02-14T06:25:59;1;1;
83024;PMS5003;72958;53.326;-1.496;2024-02-14T06:28:25;2;0;
83024;PMS5003;72958;53.326;-1.496;2024-02-14T06:30:50;1;1;
83024;PMS5003;72958;53.326;-1.496;2024-02-14T06:33:15;1;1;
83024;PMS5003;72958;53.326;-1.496;2024-02-14T06:36:01;1;1;
83024;PMS5003;72958;53.326;-1.496;2024-02-14T06:38:27;1;1;
83024;PMS5003;72958;53.326;-1.496;2024-02-14T06:41:06;0;0;
83024;PMS5003;72958;53.326;-1.496;2024-02-14T06:43:35;5;0;
83024;PMS5003;72958;53.326;-1.496;2024-02-14T06:46:06;0;0;
83024;PMS5003;72958;53.326;-1.496;2024-02-14T06:48:33;0;0;
83024;PMS5003;72958;53.326;-1.496;2024-02-14T06:50:58;0;0;
83024;PMS5003;72958;53.326;-1.496;2024-02-14T06:53:58;0;0;
83024;PMS5003;72958;53.326;-1.496;2024-02-14T06:56:23;1;0;
83024;PMS5003;72958;53.326;-1.496;2024-02-14T06:59:06;2;2;
83024;PMS5003;72958;53.326;-1.496;2024-02-14T07:01:30;1;1;
83024;PMS5003;72958;53.326;-1.496;2024-02-14T07:03:58;1;1;
83024;PMS5003;72958;53.326;-1.496;2024-02-14T07:06:32;0;0;
83024;PMS5003;72958;53.326;-1.496;2024-02-14T07:08:57;1;1;
83024;PMS5003;72958;53.326;-1.496;2024-02-14T07:11:30;1;1;
83024;PMS5003;72958;53.326;-1.496;2024-02-14T07:13:58;1;1;
83024;PMS5003;72958;53.326;-1.496;2024-02-14T07:16:25;1;1;
83024;PMS5003;72958;53.326;-1.496;2024-02-14T07:19:07;4;2;
83024;PMS5003;72958;53.326;-1.496;2024-02-14T07:21:36;0;0;
83024;PMS5003;72958;53.326;-1.496;2024-02-14T07:24:06;3;3;
83024;PMS5003;72958;53.326;-1.496;2024-02-14T07:26:35;4;0;
83024;PMS5003;72958;53.326;-1.496;2024-02-14T07:29:09;1;1;
83024;PMS5003;72958;53.326;-1.496;2024-02-14T07:31:36;2;2;
83024;PMS5003;72958;53.326;-1.496;2024-02-14T07:34:00;0;0;
83024;PMS5003;72958;53.326;-1.496;2024-02-14T07:36:31;2;2;
83024;PMS5003;72958;53.326;-1.496;2024-02-14T07:39:00;1;1;
83024;PMS5003;72958;53.326;-1.496;2024-02-14T07:41:38;1;1;
83024;PMS5003;72958;53.326;-1.496;2024-02-14T07:44:09;0;0;
83024;PMS5003;72958;53.326;-1.496;2024-02-14T07:46:38;2;2;
83024;PMS5003;72958;53.326;-1.496;2024-02-14T07:49:09;1;1;
83024;PMS5003;72958;53.326;-1.496;2024-02-14T07:51:37;1;1;
83024;PMS5003;72958;53.326;-1.496;2024-02-14T07:54:13;0;0;
83024;PMS5003;72958;53.326;-1.496;2024-02-14T07:56:36;1;1;
83024;PMS5003;72958;53.326;-1.496;2024-02-14T07:59:05;0;0;
83024;PMS5003;72958;53.326;-1.496;2024-02-14T08:01:30;2;2;
83024;PMS5003;72958;53.326;-1.496;2024-02-14T08:03:59;2;2;
83024;PMS5003;72958;53.326;-1.496;2024-02-14T08:06:29;2;2;
83024;PMS5003;72958;53.326;-1.496;2024-02-14T08:09:01;2;2;
83024;PMS5003;72958;53.326;-1.496;2024-02-14T08:11:43;0;0;
83024;PMS5003;72958;53.326;-1.496;2024-02-14T08:14:23;3;0;
83024;PMS5003;72958;53.326;-1.496;2024-02-14T08:16:53;0;0;
83024;PMS5003;72958;53.326;-1.496;2024-02-14T08:19:22;0;0;
83024;PMS5003;72958;53.326;-1.496;2024-02-14T08:21:51;0;0;
83024;PMS5003;72958;53.326;-1.496;2024-02-14T08:24:17;1;1;
83024;PMS5003;72958;53.326;-1.496;2024-02-14T08:27:12;0;0;
83024;PMS5003;72958;53.326;-1.496;2024-02-14T08:29:39;2;1;
83024;PMS5003;72958;53.326;-1.496;2024-02-14T08:32:20;1;1;
83024;PMS5003;72958;53.326;-1.496;2024-02-14T08:34:57;1;1;
83024;PMS5003;72958;53.326;-1.496;2024-02-14T08:37:21;1;1;
83024;PMS5003;72958;53.326;-1.496;2024-02-14T08:39:50;1;1;
83024;PMS5003;72958;53.326;-1.496;2024-02-14T08:42:15;1;1;
83024;PMS5003;72958;53.326;-1.496;2024-02-14T08:45:20;3;3;
83024;PMS5003;72958;53.326;-1.496;2024-02-14T08:47:45;4;4;
83024;PMS5003;72958;53.326;-1.496;2024-02-14T08:50:17;3;3;
83024;PMS5003;72958;53.326;-1.496;2024-02-14T08:52:56;1;1;
83024;PMS5003;72958;53.326;-1.496;2024-02-14T08:55:41;3;3;
83024;PMS5003;72958;53.326;-1.496;2024-02-14T08:58:07;2;2;
83024;PMS5003;72958;53.326;-1.496;2024-02-14T09:00:33;3;3;
83024;PMS5003;72958;53.326;-1.496;2024-02-14T09:03:06;4;4;
83024;PMS5003;72958;53.326;-1.496;2024-02-14T09:05:36;2;2;
83024;PMS5003;72958;53.326;-1.496;2024-02-14T09:08:06;5;5;
83024;PMS5003;72958;53.326;-1.496;2024-02-14T09:10:31;4;4;
83024;PMS5003;72958;53.326;-1.496;2024-02-14T09:13:00;5;3;
83024;PMS5003;72958;53.326;-1.496;2024-02-14T09:15:40;1;1;
83024;PMS5003;72958;53.326;-1.496;2024-02-14T09:18:05;6;5;
83024;PMS5003;72958;53.326;-1.496;2024-02-14T09:20:33;2;2;
83024;PMS5003;72958;53.326;-1.496;2024-02-14T09:23:01;5;5;
83024;PMS5003;72958;53.326;-1.496;2024-02-14T09:25:27;4;4;
83024;PMS5003;72958;53.326;-1.496;2024-02-14T09:27:57;2;2;
83024;PMS5003;72958;53.326;-1.496;2024-02-14T09:30:23;2;2;
83024;PMS5003;72958;53.326;-1.496;2024-02-14T09:32:51;5;5;
83024;PMS5003;72958;53.326;-1.496;2024-02-14T09:35:19;4;4;
83024;PMS5003;72958;53.326;-1.496;2024-02-14T09:37:51;3;3;
83024;PMS5003;72958;53.326;-1.496;2024-02-14T09:40:23;3;3;
83024;PMS5003;72958;53.326;-1.496;2024-02-14T09:42:50;5;5;
83024;PMS5003;72958;53.326;-1.496;2024-02-14T09:45:18;6;6;
83024;PMS5003;72958;53.326;-1.496;2024-02-14T09:47:44;3;3;
83024;PMS5003;72958;53.326;-1.496;2024-02-14T09:50:23;3;3;
83024;PMS5003;72958;53.326;-1.496;2024-02-14T09:53:00;2;2;
83024;PMS5003;72958;53.326;-1.496;2024-02-14T09:55:32;7;4;
83024;PMS5003;72958;53.326;-1.496;2024-02-14T09:57:58;3;3;
83024;PMS5003;72958;53.326;-1.496;2024-02-14T10:00:26;3;3;
83024;PMS5003;72958;53.326;-1.496;2024-02-14T10:02:59;0;0;
83024;PMS5003;72958;53.326;-1.496;2024-02-14T10:05:25;3;3;
83024;PMS5003;72958;53.326;-1.496;2024-02-14T10:07:51;3;3;
83024;PMS5003;72958;53.326;-1.496;2024-02-14T10:10:25;1;1;
83024;PMS5003;72958;53.326;-1.496;2024-02-14T10:13:00;1;1;
83024;PMS5003;72958;53.326;-1.496;2024-02-14T10:15:30;2;2;
83024;PMS5003;72958;53.326;-1.496;2024-02-14T10:17:57;0;0;
83024;PMS5003;72958;53.326;-1.496;2024-02-14T10:20:34;1;1;
83024;PMS5003;72958;53.326;-1.496;2024-02-14T10:23:10;1;1;
83024;PMS5003;72958;53.326;-1.496;2024-02-14T10:25:39;1;1;
83024;PMS5003;72958;53.326;-1.496;2024-02-14T10:28:07;4;4;
83024;PMS5003;72958;53.326;-1.496;2024-02-14T10:30:34;6;6;
83024;PMS5003;72958;53.326;-1.496;2024-02-14T10:33:04;0;0;
83024;PMS5003;72958;53.326;-1.496;2024-02-14T10:35:30;0;0;
83024;PMS5003;72958;53.326;-1.496;2024-02-14T10:37:59;0;0;
83024;PMS5003;72958;53.326;-1.496;2024-02-14T10:40:46;1;1;
83024;PMS5003;72958;53.326;-1.496;2024-02-14T10:43:12;2;2;
83024;PMS5003;72958;53.326;-1.496;2024-02-14T10:46:08;1;1;
83024;PMS5003;72958;53.326;-1.496;2024-02-14T10:48:49;3;3;
83024;PMS5003;72958;53.326;-1.496;2024-02-14T10:51:25;4;4;
83024;PMS5003;72958;53.326;-1.496;2024-02-14T10:54:08;18;18;
83024;PMS5003;72958;53.326;-1.496;2024-02-14T10:56:39;4;4;
83024;PMS5003;72958;53.326;-1.496;2024-02-14T10:59:06;3;3;
83024;PMS5003;72958;53.326;-1.496;2024-02-14T11:01:37;23;23;
83024;PMS5003;72958;53.326;-1.496;2024-02-14T11:04:24;3;3;
83024;PMS5003;72958;53.326;-1.496;2024-02-14T11:06:55;0;0;
83024;PMS5003;72958;53.326;-1.496;2024-02-14T11:09:21;1;1;
83024;PMS5003;72958;53.326;-1.496;2024-02-14T11:11:48;5;5;
83024;PMS5003;72958;53.326;-1.496;2024-02-14T11:14:18;2;2;
83024;PMS5003;72958;53.326;-1.496;2024-02-14T11:16:45;1;1;
83024;PMS5003;72958;53.326;-1.496;2024-02-14T11:19:12;1;1;
83024;PMS5003;72958;53.326;-1.496;2024-02-14T11:21:39;1;1;
83024;PMS5003;72958;53.326;-1.496;2024-02-14T11:24:26;1;1;
83024;PMS5003;72958;53.326;-1.496;2024-02-14T11:26:51;1;1;
83024;PMS5003;72958;53.326;-1.496;2024-02-14T11:29:28;0;0;
83024;PMS5003;72958;53.326;-1.496;2024-02-14T11:32:06;3;3;
83024;PMS5003;72958;53.326;-1.496;2024-02-14T11:34:43;3;3;
83024;PMS5003;72958;53.326;-1.496;2024-02-14T11:37:11;0;0;
83024;PMS5003;72958;53.326;-1.496;2024-02-14T11:39:51;3;3;
83024;PMS5003;72958;53.326;-1.496;2024-02-14T11:42:22;2;2;
83024;PMS5003;72958;53.326;-1.496;2024-02-14T11:44:58;4;4;
83024;PMS5003;72958;53.326;-1.496;2024-02-14T11:47:26;0;0;
83024;PMS5003;72958;53.326;-1.496;2024-02-14T11:50:11;1;1;
83024;PMS5003;72958;53.326;-1.496;2024-02-14T11:52:39;0;0;
83024;PMS5003;72958;53.326;-1.496;2024-02-14T11:55:17;0;0;
83024;PMS5003;72958;53.326;-1.496;2024-02-14T11:57:47;1;1;
83024;PMS5003;72958;53.326;-1.496;2024-02-14T12:00:16;0;0;
83024;PMS5003;72958;53.326;-1.496;2024-02-14T12:02:45;1;1;
83024;PMS5003;72958;53.326;-1.496;2024-02-14T12:05:22;7;4;
83024;PMS5003;72958;53.326;-1.496;2024-02-14T12:07:47;1;1;
83024;PMS5003;72958;53.326;-1.496;2024-02-14T12:10:20;1;1;
83024;PMS5003;72958;53.326;-1.496;2024-02-14T12:12:46;2;2;
83024;PMS5003;72958;53.326;-1.496;2024-02-14T12:15:26;0;0;
83024;PMS5003;72958;53.326;-1.496;2024-02-14T12:17:57;2;2;
83024;PMS5003;72958;53.326;-1.496;2024-02-14T12:20:34;0;0;
83024;PMS5003;72958;53.326;-1.496;2024-02-14T12:23:07;0;0;
83024;PMS5003;72958;53.326;-1.496;2024-02-14T12:25:35;0;0;
83024;PMS5003;72958;53.326;-1.496;2024-02-14T12:28:07;0;0;
83024;PMS5003;72958;53.326;-1.496;2024-02-14T12:30:43;0;0;
83024;PMS5003;72958;53.326;-1.496;2024-02-14T12:33:01;2;1;
83024;PMS5003;72958;53.326;-1.496;2024-02-14T12:35:32;1;1;
83024;PMS5003;72958;53.326;-1.496;2024-02-14T12:37:57;0;0;
83024;PMS5003;72958;53.326;-1.496;2024-02-14T12:40:23;1;0;
83024;PMS5003;72958;53.326;-1.496;2024-02-14T12:43:03;0;0;
83024;PMS5003;72958;53.326;-1.496;2024-02-14T12:45:36;1;1;
83024;PMS5003;72958;53.326;-1.496;2024-02-14T12:48:10;0;0;
83024;PMS5003;72958;53.326;-1.496;2024-02-14T12:50:43;0;0;
83024;PMS5003;72958;53.326;-1.496;2024-02-14T12:53:23;0;0;
83024;PMS5003;72958;53.326;-1.496;2024-02-14T12:55:47;1;1;
83024;PMS5003;72958;53.326;-1.496;2024-02-14T12:58:24;0;0;
83024;PMS5003;72958;53.326;-1.496;2024-02-14T13:01:00;0;0;
83024;PMS5003;72958;53.326;-1.496;2024-02-14T13:03:37;0;0;
83024;PMS5003;72958;53.326;-1.496;2024-02-14T13:06:15;0;0;
83024;PMS5003;72958;53.326;-1.496;2024-02-14T13:08:49;1;1;
83024;PMS5003;72958;53.326;-1.496;2024-02-14T13:11:19;1;1;
83024;PMS5003;72958;53.326;-1.496;2024-02-14T13:13:47;0;0;
83024;PMS5003;72958;53.326;-1.496;2024-02-14T13:16:15;1;1;
83024;PMS5003;72958;53.326;-1.496;2024-02-14T13:18:41;0;0;
83024;PMS5003;72958;53.326;-1.496;2024-02-14T13:21:09;1;1;
83024;PMS5003;72958;53.326;-1.496;2024-02-14T13:23:44;0;0;
83024;PMS5003;72958;53.326;-1.496;2024-02-14T13:26:12;1;1;
83024;PMS5003;72958;53.326;-1.496;2024-02-14T13:28:58;0;0;
83024;PMS5003;72958;53.326;-1.496;2024-02-14T13:31:22;1;1;
83024;PMS5003;72958;53.326;-1.496;2024-02-14T13:33:57;0;0;
83024;PMS5003;72958;53.326;-1.496;2024-02-14T13:36:24;1;1;
83024;PMS5003;72958;53.326;-1.496;2024-02-14T13:38:50;1;1;
83024;PMS5003;72958;53.326;-1.496;2024-02-14T13:41:44;0;0;
83024;PMS5003;72958;53.326;-1.496;2024-02-14T13:44:13;0;0;
83024;PMS5003;72958;53.326;-1.496;2024-02-14T13:46:39;0;0;
83024;PMS5003;72958;53.326;-1.496;2024-02-14T13:49:13;1;0;
83024;PMS5003;72958;53.326;-1.496;2024-02-14T13:51:57;0;0;
83024;PMS5003;72958;53.326;-1.496;2024-02-14T13:54:31;2;2;
83024;PMS5003;72958;53.326;-1.496;2024-02-14T13:56:59;0;0;
83024;PMS5003;72958;53.326;-1.496;2024-02-14T13:59:26;1;1;
83024;PMS5003;72958;53.326;-1.496;2024-02-14T14:01:56;1;1;
83024;PMS5003;72958;53.326;-1.496;2024-02-14T14:04:34;0;0;
83024;PMS5003;72958;53.326;-1.496;2024-02-14T14:07:11;1;1;
83024;PMS5003;72958;53.326;-1.496;2024-02-14T14:09:37;1;1;
83024;PMS5003;72958;53.326;-1.496;2024-02-14T14:12:13;0;0;
83024;PMS5003;72958;53.326;-1.496;2024-02-14T14:14:39;0;0;
83024;PMS5003;72958;53.326;-1.496;2024-02-14T14:17:05;0;0;
83024;PMS5003;72958;53.326;-1.496;2024-02-14T14:19:46;0;0;
83024;PMS5003;72958;53.326;-1.496;2024-02-14T14:22:33;0;0;
83024;PMS5003;72958;53.326;-1.496;2024-02-14T14:25:05;1;1;
83024;PMS5003;72958;53.326;-1.496;2024-02-14T14:27:33;1;0;
83024;PMS5003;72958;53.326;-1.496;2024-02-14T14:29:59;0;0;
83024;PMS5003;72958;53.326;-1.496;2024-02-14T14:32:26;2;1;
83024;PMS5003;72958;53.326;-1.496;2024-02-14T14:35:14;2;2;
83024;PMS5003;72958;53.326;-1.496;2024-02-14T14:37:51;0;0;
83024;PMS5003;72958;53.326;-1.496;2024-02-14T14:40:18;3;2;
83024;PMS5003;72958;53.326;-1.496;2024-02-14T14:42:45;3;3;
83024;PMS5003;72958;53.326;-1.496;2024-02-14T14:45:10;2;1;
83024;PMS5003;72958;53.326;-1.496;2024-02-14T14:47:36;1;1;
83024;PMS5003;72958;53.326;-1.496;2024-02-14T14:50:14;0;0;
83024;PMS5003;72958;53.326;-1.496;2024-02-14T14:52:39;0;0;
83024;PMS5003;72958;53.326;-1.496;2024-02-14T14:55:09;0;0;
83024;PMS5003;72958;53.326;-1.496;2024-02-14T14:57:36;1;1;
83024;PMS5003;72958;53.326;-1.496;2024-02-14T15:00:04;0;0;
83024;PMS5003;72958;53.326;-1.496;2024-02-14T15:02:33;2;1;
83024;PMS5003;72958;53.326;-1.496;2024-02-14T15:04:58;0;0;
83024;PMS5003;72958;53.326;-1.496;2024-02-14T15:07:23;2;1;
83024;PMS5003;72958;53.326;-1.496;2024-02-14T15:09:51;1;1;
83024;PMS5003;72958;53.326;-1.496;2024-02-14T15:12:35;2;2;
83024;PMS5003;72958;53.326;-1.496;2024-02-14T15:15:07;1;1;
83024;PMS5003;72958;53.326;-1.496;2024-02-14T15:17:37;0;0;
83024;PMS5003;72958;53.326;-1.496;2024-02-14T15:20:06;0;0;
83024;PMS5003;72958;53.326;-1.496;2024-02-14T15:22:32;0;0;
83024;PMS5003;72958;53.326;-1.496;2024-02-14T15:24:58;1;1;
83024;PMS5003;72958;53.326;-1.496;2024-02-14T15:27:23;2;2;
83024;PMS5003;72958;53.326;-1.496;2024-02-14T15:29:58;1;1;
83024;PMS5003;72958;53.326;-1.496;2024-02-14T15:32:23;2;0;
83024;PMS5003;72958;53.326;-1.496;2024-02-14T15:35:05;0;0;
83024;PMS5003;72958;53.326;-1.496;2024-02-14T15:37:37;2;2;
83024;PMS5003;72958;53.326;-1.496;2024-02-14T15:40:09;2;2;
83024;PMS5003;72958;53.326;-1.496;2024-02-14T15:42:30;3;2;
83024;PMS5003;72958;53.326;-1.496;2024-02-14T15:44:57;0;0;
83024;PMS5003;72958;53.326;-1.496;2024-02-14T15:47:29;2;0;
83024;PMS5003;72958;53.326;-1.496;2024-02-14T15:49:58;2;2;
83024;PMS5003;72958;53.326;-1.496;2024-02-14T15:52:24;2;1;
83024;PMS5003;72958;53.326;-1.496;2024-02-14T15:54:58;3;1;
83024;PMS5003;72958;53.326;-1.496;2024-02-14T15:57:34;2;2;
83024;PMS5003;72958;53.326;-1.496;2024-02-14T16:00:07;1;1;
83024;PMS5003;72958;53.326;-1.496;2024-02-14T16:02:33;1;1;
83024;PMS5003;72958;53.326;-1.496;2024-02-14T16:05:06;1;1;
83024;PMS5003;72958;53.326;-1.496;2024-02-14T16:07:33;2;2;
83024;PMS5003;72958;53.326;-1.496;2024-02-14T16:10:00;2;2;
83024;PMS5003;72958;53.326;-1.496;2024-02-14T16:12:30;1;1;
83024;PMS5003;72958;53.326;-1.496;2024-02-14T16:15:05;0;0;
83024;PMS5003;72958;53.326;-1.496;2024-02-14T16:17:39;3;2;
83024;PMS5003;72958;53.326;-1.496;2024-02-14T16:20:10;1;1;
83024;PMS5003;72958;53.326;-1.496;2024-02-14T16:22:37;3;3;
83024;PMS5003;72958;53.326;-1.496;2024-02-14T16:25:03;2;2;
83024;PMS5003;72958;53.326;-1.496;2024-02-14T16:27:38;0;0;
83024;PMS5003;72958;53.326;-1.496;2024-02-14T16:30:07;0;0;
83024;PMS5003;72958;53.326;-1.496;2024-02-14T16:32:36;1;1;
83024;PMS5003;72958;53.326;-1.496;2024-02-14T16:35:03;1;1;
83024;PMS5003;72958;53.326;-1.496;2024-02-14T16:37:31;1;1;
83024;PMS5003;72958;53.326;-1.496;2024-02-14T16:39:58;4;2;
83024;PMS5003;72958;53.326;-1.496;2024-02-14T16:42:48;5;5;
83024;PMS5003;72958;53.326;-1.496;2024-02-14T16:45:14;2;2;
83024;PMS5003;72958;53.326;-1.496;2024-02-14T16:47:42;1;1;
83024;PMS5003;72958;53.326;-1.496;2024-02-14T16:50:15;1;1;
83024;PMS5003;72958;53.326;-1.496;2024-02-14T16:52:45;0;0;
83024;PMS5003;72958;53.326;-1.496;2024-02-14T16:55:12;0;0;
83024;PMS5003;72958;53.326;-1.496;2024-02-14T16:57:37;0;0;
83024;PMS5003;72958;53.326;-1.496;2024-02-14T17:00:37;1;1;
83024;PMS5003;72958;53.326;-1.496;2024-02-14T17:03:05;0;0;